Mound, Texas
Current Conditions -  °F | °C
As of 10:35 AM on Thursday 30 Oct 2014 (Local Time) from KGOP Reporting Station
Broken Clouds Broken Clouds  
Wind Chill: 64°   Ceiling: 3700
Heat Index: 64°   Visibility: 10mi
Dew Point: 55°   Wind: 7mph
Humidity: 73%   Direction: 170°S
Pressure: 30.2"   Gusts: NA
Location:  31.35°N, 97.64°W
Report Text: KGOP 301535Z AUTO 17006KT 10SM BKN037 18/13 A3020 RMK AO2
Loading
Personal Weather Stations






























Interactive Weather Map New forecast layout! Learn more

10-Day Weather Forecast

Advertisements
Track Severe Weather on mobile